createdAt,value
2024-02-29T00:00:00.370Z,1019.36
2024-02-29T00:00:09.716Z,1019.32
2024-02-29T00:00:19.126Z,1019.37
2024-02-29T00:00:28.769Z,1019.41
2024-02-29T00:00:47.685Z,1019.32
2024-02-29T00:00:57.205Z,1019.29
2024-02-29T00:01:06.511Z,1019.29
2024-02-29T00:01:15.887Z,1019.28
2024-02-29T00:01:25.299Z,1019.32
2024-02-29T00:01:34.717Z,1019.26
2024-02-29T00:01:53.526Z,1019.24
2024-02-29T00:02:03.156Z,1019.32
2024-02-29T00:02:12.556Z,1019.30
2024-02-29T00:02:22.005Z,1019.30
2024-02-29T00:02:31.431Z,1019.31
2024-02-29T00:02:40.852Z,1019.31
2024-02-29T00:02:59.717Z,1019.31
2024-02-29T00:03:09.114Z,1019.26
2024-02-29T00:03:18.705Z,1019.31
2024-02-29T00:03:28.153Z,1019.32
2024-02-29T00:03:37.544Z,1019.31
2024-02-29T00:03:46.971Z,1019.24
2024-02-29T00:04:05.909Z,1019.24
2024-02-29T00:04:15.339Z,1019.23
2024-02-29T00:04:24.678Z,1019.29
2024-02-29T00:04:34.082Z,1019.25
2024-02-29T00:04:43.481Z,1019.34
2024-02-29T00:04:52.913Z,1019.35
2024-02-29T00:05:11.706Z,1019.28
2024-02-29T00:05:21.106Z,1019.29
2024-02-29T00:05:30.538Z,1019.28
2024-02-29T00:05:39.926Z,1019.26
2024-02-29T00:05:49.334Z,1019.31
2024-02-29T00:05:58.735Z,1019.34
2024-02-29T00:06:17.570Z,1019.38
2024-02-29T00:06:26.959Z,1019.30
2024-02-29T00:06:36.481Z,1019.31
2024-02-29T00:06:45.854Z,1019.28
2024-02-29T00:06:55.256Z,1019.33
2024-02-29T00:07:04.711Z,1019.33
2024-02-29T00:07:26.835Z,1019.33
2024-02-29T00:07:36.245Z,1019.32
2024-02-29T00:07:45.629Z,1019.30
2024-02-29T00:07:55.061Z,1019.38
2024-02-29T00:08:04.461Z,1019.34
2024-02-29T00:08:13.866Z,1019.39
2024-02-29T00:08:32.759Z,1019.38
2024-02-29T00:08:42.167Z,1019.50
2024-02-29T00:08:51.609Z,1019.35
2024-02-29T00:09:01.008Z,1019.44
2024-02-29T00:09:10.426Z,1019.38
2024-02-29T00:09:19.860Z,1019.43
2024-02-29T00:09:38.843Z,1019.36
2024-02-29T00:09:48.222Z,1019.31
2024-02-29T00:09:57.733Z,1019.35
2024-02-29T00:10:07.213Z,1019.40
2024-02-29T00:10:16.671Z,1019.38
2024-02-29T00:10:25.906Z,1019.42
2024-02-29T00:10:45.221Z,1019.41
2024-02-29T00:10:56.037Z,1019.42
2024-02-29T00:11:05.463Z,1019.43
2024-02-29T00:11:14.856Z,1019.44
2024-02-29T00:11:24.344Z,1019.38
2024-02-29T00:11:33.715Z,1019.39
2024-02-29T00:11:52.457Z,1019.36
2024-02-29T00:12:01.841Z,1019.38
2024-02-29T00:12:11.351Z,1019.32
2024-02-29T00:12:20.770Z,1019.40
2024-02-29T00:12:30.201Z,1019.32
2024-02-29T00:12:39.708Z,1019.29
2024-02-29T00:12:58.567Z,1019.40
2024-02-29T00:13:07.876Z,1019.37
2024-02-29T00:13:17.375Z,1019.31
2024-02-29T00:13:26.656Z,1019.27
2024-02-29T00:13:36.081Z,1019.33
2024-02-29T00:13:45.485Z,1019.30
2024-02-29T00:14:04.389Z,1019.40
2024-02-29T00:14:13.853Z,1019.40
2024-02-29T00:14:23.272Z,1019.31
2024-02-29T00:14:32.679Z,1019.31
2024-02-29T00:14:42.108Z,1019.37
2024-02-29T00:14:51.604Z,1019.40
2024-02-29T00:15:10.438Z,1019.27
2024-02-29T00:15:19.873Z,1019.35
2024-02-29T00:15:29.310Z,1019.41
2024-02-29T00:15:38.681Z,1019.34
2024-02-29T00:15:48.120Z,1019.43
2024-02-29T00:15:57.528Z,1019.41
2024-02-29T00:16:16.336Z,1019.37
2024-02-29T00:16:25.677Z,1019.34
2024-02-29T00:16:35.111Z,1019.38
2024-02-29T00:16:44.575Z,1019.33
2024-02-29T00:16:53.983Z,1019.38
2024-02-29T00:17:03.386Z,1019.42
2024-02-29T00:17:22.293Z,1019.38
2024-02-29T00:17:31.708Z,1019.35
2024-02-29T00:17:41.120Z,1019.43
2024-02-29T00:17:50.584Z,1019.32
2024-02-29T00:17:59.915Z,1019.47
2024-02-29T00:18:09.351Z,1019.35
2024-02-29T00:18:28.182Z,1019.43
2024-02-29T00:18:37.562Z,1019.42
2024-02-29T00:18:46.995Z,1019.39
2024-02-29T00:18:56.451Z,1019.39
2024-02-29T00:19:05.954Z,1019.46
2024-02-29T00:19:15.360Z,1019.40
2024-02-29T00:19:34.144Z,1019.44
2024-02-29T00:19:43.546Z,1019.40
2024-02-29T00:19:53.000Z,1019.43
2024-02-29T00:20:02.416Z,1019.43
2024-02-29T00:20:11.831Z,1019.38
2024-02-29T00:20:21.297Z,1019.45
2024-02-29T00:20:40.132Z,1019.40
2024-02-29T00:20:49.531Z,1019.47
2024-02-29T00:20:58.927Z,1019.37
2024-02-29T00:21:08.322Z,1019.41
2024-02-29T00:21:17.735Z,1019.34
2024-02-29T00:21:27.159Z,1019.32
2024-02-29T00:21:46.117Z,1019.35
2024-02-29T00:21:55.475Z,1019.46
2024-02-29T00:22:04.873Z,1019.43
2024-02-29T00:22:14.366Z,1019.38
2024-02-29T00:22:24.409Z,1019.43
2024-02-29T00:22:33.812Z,1019.44
2024-02-29T00:22:52.625Z,1019.41
2024-02-29T00:23:02.028Z,1019.47
2024-02-29T00:23:11.527Z,1019.44
2024-02-29T00:23:20.933Z,1019.43
2024-02-29T00:23:30.300Z,1019.40
2024-02-29T00:23:39.689Z,1019.45
2024-02-29T00:23:58.464Z,1019.39
2024-02-29T00:24:07.872Z,1019.44
2024-02-29T00:24:17.293Z,1019.36
2024-02-29T00:24:26.684Z,1019.38
2024-02-29T00:24:36.126Z,1019.43
2024-02-29T00:24:45.499Z,1019.46
2024-02-29T00:25:04.344Z,1019.40
2024-02-29T00:25:13.832Z,1019.44
2024-02-29T00:25:23.138Z,1019.38
2024-02-29T00:25:32.522Z,1019.42
2024-02-29T00:25:41.917Z,1019.50
2024-02-29T00:25:51.347Z,1019.46
2024-02-29T00:26:10.186Z,1019.45
2024-02-29T00:26:19.578Z,1019.46
2024-02-29T00:26:28.973Z,1019.45
2024-02-29T00:26:38.367Z,1019.46
2024-02-29T00:26:47.761Z,1019.43
2024-02-29T00:26:57.165Z,1019.46
2024-02-29T00:27:15.986Z,1019.51
2024-02-29T00:27:29.267Z,1019.36
2024-02-29T00:27:38.656Z,1019.37
2024-02-29T00:27:48.063Z,1019.43
2024-02-29T00:27:57.492Z,1019.44
2024-02-29T00:28:06.906Z,1019.37
2024-02-29T00:28:16.245Z,1019.43
2024-02-29T00:28:35.022Z,1019.50
2024-02-29T00:28:44.419Z,1019.41
2024-02-29T00:28:53.813Z,1019.41
2024-02-29T00:29:03.209Z,1019.46
2024-02-29T00:29:12.618Z,1019.36
2024-02-29T00:29:22.014Z,1019.53
2024-02-29T00:29:40.869Z,1019.47
2024-02-29T00:29:50.255Z,1019.43
2024-02-29T00:29:59.665Z,1019.44
2024-02-29T00:30:09.081Z,1019.52
2024-02-29T00:30:18.525Z,1019.41
2024-02-29T00:30:28.042Z,1019.41
2024-02-29T00:30:46.770Z,1019.47
2024-02-29T00:30:56.155Z,1019.36
2024-02-29T00:31:05.606Z,1019.41
2024-02-29T00:31:15.055Z,1019.41
2024-02-29T00:31:24.370Z,1019.45
2024-02-29T00:31:33.787Z,1019.43
2024-02-29T00:31:52.572Z,1019.38
2024-02-29T00:32:02.247Z,1019.39
2024-02-29T00:32:11.413Z,1019.40
2024-02-29T00:32:20.811Z,1019.40
2024-02-29T00:32:30.232Z,1019.39
2024-02-29T00:32:39.876Z,1019.32
2024-02-29T00:32:58.780Z,1019.40
2024-02-29T00:33:08.173Z,1019.36
2024-02-29T00:33:17.628Z,1019.38
2024-02-29T00:33:27.060Z,1019.42
2024-02-29T00:33:36.406Z,1019.35
2024-02-29T00:33:45.845Z,1019.37
2024-02-29T00:34:04.669Z,1019.38
2024-02-29T00:34:14.155Z,1019.29
2024-02-29T00:34:23.395Z,1019.34
2024-02-29T00:34:32.778Z,1019.33
2024-02-29T00:34:42.179Z,1019.45
2024-02-29T00:34:51.575Z,1019.35
2024-02-29T00:35:10.384Z,1019.33
2024-02-29T00:35:19.769Z,1019.38
2024-02-29T00:35:29.157Z,1019.37
2024-02-29T00:35:38.555Z,1019.35
2024-02-29T00:35:49.649Z,1019.38
2024-02-29T00:36:08.829Z,1019.36
2024-02-29T00:36:16.215Z,1019.35
2024-02-29T00:36:25.625Z,1019.31
2024-02-29T00:36:35.035Z,1019.27
2024-02-29T00:36:44.424Z,1019.43
2024-02-29T00:36:53.873Z,1019.37
2024-02-29T00:37:03.290Z,1019.38
2024-02-29T00:37:22.022Z,1019.39
2024-02-29T00:37:31.482Z,1019.26
2024-02-29T00:37:40.943Z,1019.32
2024-02-29T00:37:50.356Z,1019.33
2024-02-29T00:37:59.804Z,1019.38
2024-02-29T00:38:09.240Z,1019.36
2024-02-29T00:38:28.090Z,1019.34
2024-02-29T00:38:37.493Z,1019.32
2024-02-29T00:38:46.912Z,1019.34
2024-02-29T00:39:05.696Z,1019.33
2024-02-29T00:39:11.906Z,1019.35
2024-02-29T00:39:15.647Z,1019.35
2024-02-29T00:39:33.974Z,1019.41
2024-02-29T00:39:43.397Z,1019.35
2024-02-29T00:39:52.805Z,1019.32
2024-02-29T00:40:02.305Z,1019.33
2024-02-29T00:40:11.624Z,1019.30
2024-02-29T00:40:21.014Z,1019.35
2024-02-29T00:40:39.765Z,1019.30
2024-02-29T00:40:49.150Z,1019.33
2024-02-29T00:40:58.565Z,1019.38
2024-02-29T00:41:08.093Z,1019.31
2024-02-29T00:41:17.491Z,1019.37
2024-02-29T00:41:26.916Z,1019.34
2024-02-29T00:41:45.715Z,1019.42
2024-02-29T00:41:55.418Z,1019.36
2024-02-29T00:42:04.799Z,1019.42
2024-02-29T00:42:14.192Z,1019.32
2024-02-29T00:42:23.589Z,1019.47
2024-02-29T00:42:33.037Z,1019.44
2024-02-29T00:42:51.921Z,1019.44
2024-02-29T00:43:01.283Z,1019.44
2024-02-29T00:43:10.723Z,1019.40
2024-02-29T00:43:20.053Z,1019.39
2024-02-29T00:43:29.474Z,1019.34
2024-02-29T00:43:38.883Z,1019.39
2024-02-29T00:43:57.699Z,1019.52
2024-02-29T00:44:07.313Z,1019.53
2024-02-29T00:44:16.741Z,1019.46
2024-02-29T00:44:26.147Z,1019.46
2024-02-29T00:44:35.588Z,1019.42
2024-02-29T00:44:45.000Z,1019.40
2024-02-29T00:45:03.854Z,1019.53
2024-02-29T00:45:13.262Z,1019.45
2024-02-29T00:45:22.652Z,1019.41
2024-02-29T00:45:32.074Z,1019.43
2024-02-29T00:45:41.468Z,1019.47
2024-02-29T00:45:50.846Z,1019.44
2024-02-29T00:46:09.721Z,1019.49
2024-02-29T00:46:19.136Z,1019.40
2024-02-29T00:46:28.462Z,1019.35
2024-02-29T00:46:37.905Z,1019.46
2024-02-29T00:46:47.295Z,1019.39
2024-02-29T00:46:56.664Z,1019.42
2024-02-29T00:47:15.480Z,1019.48
2024-02-29T00:47:24.925Z,1019.42
2024-02-29T00:47:34.328Z,1019.41
2024-02-29T00:47:43.721Z,1019.47
2024-02-29T00:47:53.129Z,1019.45
2024-02-29T00:48:02.534Z,1019.44
2024-02-29T00:48:21.372Z,1019.45
2024-02-29T00:48:30.875Z,1019.43
2024-02-29T00:48:40.225Z,1019.46
2024-02-29T00:48:49.657Z,1019.41
2024-02-29T00:48:59.117Z,1019.44
2024-02-29T00:49:08.718Z,1019.37
2024-02-29T00:49:27.241Z,1019.37
2024-02-29T00:49:36.685Z,1019.39
2024-02-29T00:49:46.060Z,1019.33
2024-02-29T00:49:55.451Z,1019.38
2024-02-29T00:50:04.890Z,1019.39
2024-02-29T00:50:14.302Z,1019.37
2024-02-29T00:50:33.169Z,1019.44
2024-02-29T00:50:42.580Z,1019.42
2024-02-29T00:50:51.982Z,1019.39
2024-02-29T00:51:01.440Z,1019.40
2024-02-29T00:51:10.849Z,1019.42
2024-02-29T00:51:20.246Z,1019.46
2024-02-29T00:51:39.179Z,1019.41
2024-02-29T00:51:48.462Z,1019.41
2024-02-29T00:51:57.912Z,1019.46
2024-02-29T00:52:07.372Z,1019.44
2024-02-29T00:52:16.702Z,1019.43
2024-02-29T00:52:26.314Z,1019.40
2024-02-29T00:52:45.180Z,1019.42
2024-02-29T00:52:54.569Z,1019.45
2024-02-29T00:53:03.958Z,1019.42
2024-02-29T00:53:13.372Z,1019.37
2024-02-29T00:53:22.757Z,1019.39
2024-02-29T00:53:32.152Z,1019.42
2024-02-29T00:53:50.951Z,1019.46
2024-02-29T00:54:00.332Z,1019.43
2024-02-29T00:54:09.720Z,1019.46
2024-02-29T00:54:19.130Z,1019.47
2024-02-29T00:54:28.579Z,1019.39
2024-02-29T00:54:37.970Z,1019.37
2024-02-29T00:54:56.753Z,1019.40
2024-02-29T00:55:06.217Z,1019.40
2024-02-29T00:55:15.567Z,1019.49
2024-02-29T00:55:24.945Z,1019.45
2024-02-29T00:55:34.393Z,1019.46
2024-02-29T00:55:43.754Z,1019.47
2024-02-29T00:56:02.531Z,1019.46
2024-02-29T00:56:11.919Z,1019.45
2024-02-29T00:56:21.406Z,1019.39
2024-02-29T00:56:30.796Z,1019.40
2024-02-29T00:56:40.182Z,1019.47
2024-02-29T00:56:49.571Z,1019.37
2024-02-29T00:57:08.369Z,1019.34
2024-02-29T00:57:17.754Z,1019.35
2024-02-29T00:57:27.143Z,1019.36
2024-02-29T00:57:36.598Z,1019.36
2024-02-29T00:57:45.966Z,1019.36
2024-02-29T00:57:55.374Z,1019.40
2024-02-29T00:58:14.186Z,1019.40
2024-02-29T00:58:23.535Z,1019.38
2024-02-29T00:58:32.928Z,1019.28
2024-02-29T00:58:42.331Z,1019.32
2024-02-29T00:58:51.728Z,1019.29
2024-02-29T00:59:01.131Z,1019.29
2024-02-29T00:59:19.933Z,1019.29
2024-02-29T00:59:29.314Z,1019.30
2024-02-29T00:59:38.734Z,1019.28
2024-02-29T00:59:48.113Z,1019.28
2024-02-29T00:59:57.545Z,1019.34
2024-02-29T01:00:06.973Z,1019.26
2024-02-29T01:00:25.818Z,1019.27
2024-02-29T01:00:35.294Z,1019.26
2024-02-29T01:00:44.784Z,1019.30
2024-02-29T01:00:54.133Z,1019.23
2024-02-29T01:01:03.533Z,1019.25
2024-02-29T01:01:13.012Z,1019.26
2024-02-29T01:01:31.797Z,1019.16
2024-02-29T01:01:41.187Z,1019.29
2024-02-29T01:01:50.684Z,1019.28
2024-02-29T01:02:00.042Z,1019.28
2024-02-29T01:02:09.319Z,1019.26
2024-02-29T01:02:18.708Z,1019.29
2024-02-29T01:02:37.549Z,1019.25
2024-02-29T01:02:46.926Z,1019.27
2024-02-29T01:02:56.324Z,1019.23
2024-02-29T01:03:05.723Z,1019.23
2024-02-29T01:03:15.114Z,1019.25
2024-02-29T01:03:24.531Z,1019.25
2024-02-29T01:03:43.319Z,1019.21
2024-02-29T01:03:52.723Z,1019.23
2024-02-29T01:04:02.192Z,1019.21
2024-02-29T01:04:11.581Z,1019.16
2024-02-29T01:04:20.962Z,1019.22
2024-02-29T01:04:30.293Z,1019.18
2024-02-29T01:04:49.088Z,1019.20
2024-02-29T01:04:58.503Z,1019.21
2024-02-29T01:05:07.910Z,1019.19
2024-02-29T01:05:17.377Z,1019.19
2024-02-29T01:05:26.704Z,1019.13
2024-02-29T01:05:36.099Z,1019.15
2024-02-29T01:05:54.908Z,1019.24
2024-02-29T01:06:04.349Z,1019.14
2024-02-29T01:06:13.742Z,1019.19
2024-02-29T01:06:23.113Z,1019.15
2024-02-29T01:06:32.567Z,1019.20
2024-02-29T01:06:41.938Z,1019.22
2024-02-29T01:07:00.846Z,1019.15
2024-02-29T01:07:10.235Z,1019.13
2024-02-29T01:07:19.592Z,1019.18
2024-02-29T01:07:28.946Z,1019.17
2024-02-29T01:07:38.387Z,1019.14
2024-02-29T01:07:47.784Z,1019.21
2024-02-29T01:08:06.553Z,1019.16
2024-02-29T01:08:15.932Z,1019.16
2024-02-29T01:08:25.328Z,1019.15
2024-02-29T01:08:34.743Z,1019.21
2024-02-29T01:08:44.135Z,1019.18
2024-02-29T01:08:53.529Z,1019.13
2024-02-29T01:09:12.303Z,1019.17
2024-02-29T01:09:21.715Z,1019.13
2024-02-29T01:09:31.203Z,1019.14
2024-02-29T01:09:40.506Z,1019.13
2024-02-29T01:09:50.080Z,1019.13
2024-02-29T01:09:59.462Z,1019.15
2024-02-29T01:10:18.278Z,1019.08
2024-02-29T01:10:27.611Z,1019.17
2024-02-29T01:10:37.076Z,1019.12
2024-02-29T01:10:46.438Z,1019.08
2024-02-29T01:10:55.890Z,1019.07
2024-02-29T01:11:05.227Z,1019.15
2024-02-29T01:11:24.086Z,1019.17
2024-02-29T01:11:33.462Z,1019.16
2024-02-29T01:11:42.832Z,1019.12
2024-02-29T01:11:52.217Z,1019.19
2024-02-29T01:12:01.634Z,1019.12
2024-02-29T01:12:11.013Z,1019.14
2024-02-29T01:12:29.821Z,1019.14
2024-02-29T01:12:39.251Z,1019.11
2024-02-29T01:12:48.676Z,1019.14
2024-02-29T01:12:58.114Z,1019.10
2024-02-29T01:13:07.474Z,1019.08
2024-02-29T01:13:16.866Z,1019.09
2024-02-29T01:13:35.756Z,1019.17
2024-02-29T01:13:45.139Z,1019.06
2024-02-29T01:13:54.548Z,1019.12
2024-02-29T01:14:03.944Z,1019.08
2024-02-29T01:14:13.346Z,1019.08
2024-02-29T01:14:22.774Z,1019.04
2024-02-29T01:14:41.565Z,1019.12
2024-02-29T01:14:50.937Z,1019.07
2024-02-29T01:15:00.332Z,1019.10
2024-02-29T01:15:09.726Z,1019.12
2024-02-29T01:15:19.114Z,1019.04
2024-02-29T01:15:28.550Z,1019.12
2024-02-29T01:15:47.440Z,1019.16
2024-02-29T01:15:56.772Z,1019.16
2024-02-29T01:16:06.297Z,1019.09
2024-02-29T01:16:15.544Z,1019.00
2024-02-29T01:16:24.903Z,1019.08
2024-02-29T01:16:34.348Z,1019.08
2024-02-29T01:16:53.277Z,1019.12
2024-02-29T01:17:02.672Z,1019.06
2024-02-29T01:17:12.130Z,1019.07
2024-02-29T01:17:21.525Z,1019.01
2024-02-29T01:17:30.961Z,1019.10
2024-02-29T01:17:40.365Z,1019.07
2024-02-29T01:17:59.168Z,1019.05
2024-02-29T01:18:08.641Z,1019.08
2024-02-29T01:18:18.033Z,1019.14
2024-02-29T01:18:27.355Z,1019.10
2024-02-29T01:18:36.801Z,1019.09
2024-02-29T01:18:46.187Z,1018.98
2024-02-29T01:19:04.937Z,1019.02
2024-02-29T01:19:14.400Z,1019.07
2024-02-29T01:19:23.701Z,1019.16
2024-02-29T01:19:33.094Z,1019.13
2024-02-29T01:19:42.472Z,1019.07
2024-02-29T01:19:51.880Z,1019.09
2024-02-29T01:20:10.779Z,1019.06
2024-02-29T01:20:20.157Z,1019.03
2024-02-29T01:20:29.536Z,1019.07
2024-02-29T01:20:38.932Z,1019.08
2024-02-29T01:20:48.327Z,1019.10
2024-02-29T01:20:57.727Z,1019.06
2024-02-29T01:21:16.518Z,1019.12
2024-02-29T01:21:25.926Z,1019.09
2024-02-29T01:21:35.334Z,1019.08
2024-02-29T01:21:44.748Z,1019.06
2024-02-29T01:21:54.130Z,1019.17
2024-02-29T01:22:03.796Z,1019.05
2024-02-29T01:22:22.376Z,1019.11
2024-02-29T01:22:31.887Z,1019.10
2024-02-29T01:22:41.337Z,1019.04
2024-02-29T01:22:50.742Z,1019.14
2024-02-29T01:23:00.254Z,1019.09
2024-02-29T01:23:09.649Z,1019.04
2024-02-29T01:23:28.468Z,1019.05
2024-02-29T01:23:37.874Z,1019.02
2024-02-29T01:23:47.276Z,1019.06
2024-02-29T01:23:56.655Z,1019.05
2024-02-29T01:24:06.269Z,1019.04
2024-02-29T01:24:15.646Z,1018.98
2024-02-29T01:24:34.494Z,1019.04
2024-02-29T01:24:43.874Z,1019.01
2024-02-29T01:24:53.302Z,1019.01
2024-02-29T01:25:02.711Z,1019.09
2024-02-29T01:25:12.105Z,1019.03
2024-02-29T01:25:21.429Z,1019.02
2024-02-29T01:25:40.241Z,1019.02
2024-02-29T01:25:49.624Z,1018.99
2024-02-29T01:25:59.001Z,1018.99
2024-02-29T01:26:08.406Z,1019.01
2024-02-29T01:26:17.790Z,1019.00
2024-02-29T01:26:27.232Z,1018.98
2024-02-29T01:26:46.006Z,1019.02
2024-02-29T01:26:55.423Z,1019.08
2024-02-29T01:27:04.801Z,1019.00
2024-02-29T01:27:14.248Z,1019.03
2024-02-29T01:27:23.658Z,1018.99
2024-02-29T01:27:33.090Z,1018.99
2024-02-29T01:27:52.020Z,1018.99
2024-02-29T01:28:01.475Z,1018.94
2024-02-29T01:28:11.024Z,1019.05
2024-02-29T01:28:20.285Z,1018.98
2024-02-29T01:28:29.707Z,1018.98
2024-02-29T01:28:39.099Z,1018.96
2024-02-29T01:28:57.860Z,1018.98
2024-02-29T01:29:07.266Z,1018.99
2024-02-29T01:29:16.793Z,1019.05
2024-02-29T01:29:26.199Z,1019.00
2024-02-29T01:29:35.587Z,1019.00
2024-02-29T01:29:44.992Z,1019.00
2024-02-29T01:30:03.789Z,1019.00
2024-02-29T01:30:13.239Z,1018.97
2024-02-29T01:30:22.652Z,1018.99
2024-02-29T01:30:32.083Z,1018.96
2024-02-29T01:30:41.519Z,1018.94
2024-02-29T01:30:50.888Z,1019.02
2024-02-29T01:31:09.674Z,1018.92
2024-02-29T01:31:19.119Z,1018.88
2024-02-29T01:31:28.434Z,1018.90
2024-02-29T01:31:37.822Z,1019.00
2024-02-29T01:31:47.205Z,1018.87
2024-02-29T01:31:56.606Z,1018.94
2024-02-29T01:32:19.251Z,1018.90
2024-02-29T01:32:27.959Z,1018.92
2024-02-29T01:32:43.841Z,1018.87
2024-02-29T01:32:53.210Z,1018.98
2024-02-29T01:33:02.618Z,1019.02
2024-02-29T01:33:21.464Z,1018.95
2024-02-29T01:33:30.989Z,1018.90
2024-02-29T01:33:40.302Z,1018.92
2024-02-29T01:33:49.956Z,1019.02
2024-02-29T01:33:59.339Z,1018.89
2024-02-29T01:34:08.794Z,1019.01
2024-02-29T01:34:27.610Z,1018.92
2024-02-29T01:34:37.037Z,1019.02
2024-02-29T01:34:46.458Z,1018.93
2024-02-29T01:34:55.826Z,1019.03
2024-02-29T01:35:05.242Z,1018.97
2024-02-29T01:35:14.648Z,1018.97
2024-02-29T01:35:33.420Z,1018.96
2024-02-29T01:35:42.829Z,1018.94
2024-02-29T01:35:52.216Z,1018.98
2024-02-29T01:36:01.646Z,1018.97
2024-02-29T01:36:10.993Z,1018.96
2024-02-29T01:36:20.398Z,1018.91
2024-02-29T01:36:39.219Z,1018.90
2024-02-29T01:36:48.603Z,1018.93
2024-02-29T01:36:58.042Z,1018.97
2024-02-29T01:37:07.514Z,1019.02
2024-02-29T01:37:16.864Z,1018.92
2024-02-29T01:37:26.214Z,1018.82
2024-02-29T01:37:45.029Z,1018.89
2024-02-29T01:37:54.426Z,1018.84
2024-02-29T01:38:03.827Z,1018.90
2024-02-29T01:38:13.231Z,1018.96
2024-02-29T01:38:22.641Z,1018.95
2024-02-29T01:38:32.062Z,1018.94
2024-02-29T01:38:50.915Z,1018.91
2024-02-29T01:39:00.317Z,1018.95
2024-02-29T01:39:09.695Z,1018.93
2024-02-29T01:39:19.088Z,1018.86
2024-02-29T01:39:28.641Z,1018.98
2024-02-29T01:39:38.091Z,1018.95
2024-02-29T01:39:57.037Z,1018.95
2024-02-29T01:40:06.528Z,1018.90
2024-02-29T01:40:15.894Z,1018.90
2024-02-29T01:40:25.245Z,1018.88
2024-02-29T01:40:34.647Z,1018.90
2024-02-29T01:40:44.204Z,1018.94
2024-02-29T01:41:02.997Z,1018.92
2024-02-29T01:41:12.395Z,1018.97
2024-02-29T01:41:21.787Z,1018.95
2024-02-29T01:41:31.211Z,1018.91
2024-02-29T01:41:40.603Z,1018.96
2024-02-29T01:41:50.010Z,1018.90
2024-02-29T01:42:08.818Z,1018.93
2024-02-29T01:42:18.234Z,1018.90
2024-02-29T01:42:27.624Z,1018.92
2024-02-29T01:42:37.050Z,1018.87
2024-02-29T01:42:46.500Z,1018.90
2024-02-29T01:42:55.913Z,1018.89
2024-02-29T01:43:14.898Z,1018.83
2024-02-29T01:43:24.247Z,1018.83
2024-02-29T01:43:33.640Z,1018.88
2024-02-29T01:43:43.026Z,1018.83
2024-02-29T01:43:52.422Z,1018.83
2024-02-29T01:44:01.827Z,1018.78
2024-02-29T01:44:20.684Z,1018.91
2024-02-29T01:44:30.092Z,1018.84
2024-02-29T01:44:39.487Z,1018.83
2024-02-29T01:44:48.874Z,1018.85
2024-02-29T01:44:58.282Z,1018.74
2024-02-29T01:45:07.697Z,1018.74
2024-02-29T01:45:26.536Z,1018.86
2024-02-29T01:45:35.973Z,1018.79
2024-02-29T01:45:45.377Z,1018.87
2024-02-29T01:45:54.774Z,1018.79
2024-02-29T01:46:04.193Z,1018.82
2024-02-29T01:46:13.672Z,1018.84
2024-02-29T01:46:32.352Z,1018.78
2024-02-29T01:46:41.743Z,1018.81
2024-02-29T01:46:51.133Z,1018.77
2024-02-29T01:47:00.591Z,1018.79
2024-02-29T01:47:09.985Z,1018.80
2024-02-29T01:47:19.393Z,1018.82
2024-02-29T01:47:38.190Z,1018.82
2024-02-29T01:47:47.619Z,1018.84
2024-02-29T01:47:57.030Z,1018.79
2024-02-29T01:48:06.487Z,1018.79
2024-02-29T01:48:15.848Z,1018.80
2024-02-29T01:48:25.280Z,1018.83
2024-02-29T01:48:44.109Z,1018.77
2024-02-29T01:48:53.515Z,1018.72
2024-02-29T01:49:02.925Z,1018.73
2024-02-29T01:49:12.356Z,1018.76
2024-02-29T01:49:21.655Z,1018.68
2024-02-29T01:49:31.034Z,1018.74
2024-02-29T01:49:49.876Z,1018.69
2024-02-29T01:49:59.275Z,1018.76
2024-02-29T01:50:08.739Z,1018.77
2024-02-29T01:50:18.125Z,1018.78
2024-02-29T01:50:27.497Z,1018.73
2024-02-29T01:50:36.905Z,1018.68
2024-02-29T01:50:55.676Z,1018.73
2024-02-29T01:51:05.068Z,1018.69
2024-02-29T01:51:14.455Z,1018.73
2024-02-29T01:51:23.892Z,1018.71
2024-02-29T01:51:33.344Z,1018.76
2024-02-29T01:51:42.736Z,1018.77
2024-02-29T01:52:01.607Z,1018.70
2024-02-29T01:52:10.986Z,1018.72
2024-02-29T01:52:20.348Z,1018.77
2024-02-29T01:52:29.737Z,1018.75
2024-02-29T01:52:39.155Z,1018.70
2024-02-29T01:52:48.774Z,1018.73
2024-02-29T01:53:07.605Z,1018.66
2024-02-29T01:53:16.968Z,1018.66
2024-02-29T01:53:26.367Z,1018.69
2024-02-29T01:53:35.784Z,1018.67
2024-02-29T01:53:45.182Z,1018.63
2024-02-29T01:53:54.616Z,1018.72
2024-02-29T01:54:13.441Z,1018.69
2024-02-29T01:54:22.824Z,1018.64
2024-02-29T01:54:32.261Z,1018.69
2024-02-29T01:54:41.681Z,1018.69
2024-02-29T01:54:51.071Z,1018.67
2024-02-29T01:55:00.550Z,1018.66
2024-02-29T01:55:19.313Z,1018.60
2024-02-29T01:55:28.608Z,1018.60
2024-02-29T01:55:38.003Z,1018.63
2024-02-29T01:55:47.406Z,1018.59
2024-02-29T01:55:56.796Z,1018.61
2024-02-29T01:56:06.195Z,1018.59
2024-02-29T01:56:24.998Z,1018.61
2024-02-29T01:56:34.406Z,1018.64
2024-02-29T01:56:43.789Z,1018.61
2024-02-29T01:56:53.303Z,1018.63
2024-02-29T01:57:02.723Z,1018.63
2024-02-29T01:57:12.132Z,1018.63
2024-02-29T01:57:30.923Z,1018.58
2024-02-29T01:57:40.314Z,1018.62
2024-02-29T01:57:49.763Z,1018.52
2024-02-29T01:57:59.190Z,1018.52
2024-02-29T01:58:10.421Z,1018.55
2024-02-29T01:58:17.942Z,1018.56
2024-02-29T01:58:36.745Z,1018.54
2024-02-29T01:58:46.341Z,1018.61
2024-02-29T01:58:55.730Z,1018.53
2024-02-29T01:59:05.128Z,1018.57
2024-02-29T01:59:14.540Z,1018.59
2024-02-29T01:59:23.948Z,1018.56
2024-02-29T01:59:42.784Z,1018.54
2024-02-29T01:59:52.189Z,1018.51
2024-02-29T02:00:01.644Z,1018.51
2024-02-29T02:00:10.953Z,1018.65
2024-02-29T02:00:20.368Z,1018.62
2024-02-29T02:00:29.801Z,1018.61
2024-02-29T02:00:48.633Z,1018.57
2024-02-29T02:00:58.091Z,1018.60
2024-02-29T02:01:07.480Z,1018.54
2024-02-29T02:01:16.929Z,1018.55
2024-02-29T02:01:26.238Z,1018.60
2024-02-29T02:01:35.717Z,1018.58
2024-02-29T02:01:54.515Z,1018.58
2024-02-29T02:02:03.909Z,1018.62
2024-02-29T02:02:13.291Z,1018.64
2024-02-29T02:02:22.713Z,1018.58
2024-02-29T02:02:32.212Z,1018.53
2024-02-29T02:02:41.618Z,1018.57
2024-02-29T02:03:00.436Z,1018.53
2024-02-29T02:03:09.843Z,1018.60
2024-02-29T02:03:19.265Z,1018.56
2024-02-29T02:03:28.669Z,1018.58
2024-02-29T02:03:38.154Z,1018.61
2024-02-29T02:03:47.464Z,1018.59
2024-02-29T02:04:06.282Z,1018.60
2024-02-29T02:04:15.683Z,1018.56
2024-02-29T02:04:25.030Z,1018.49
2024-02-29T02:04:34.432Z,1018.57
2024-02-29T02:04:43.844Z,1018.57
2024-02-29T02:04:53.273Z,1018.51
2024-02-29T02:05:12.167Z,1018.55
2024-02-29T02:05:21.503Z,1018.59
2024-02-29T02:05:30.881Z,1018.60
2024-02-29T02:05:40.443Z,1018.62
2024-02-29T02:05:49.829Z,1018.56
2024-02-29T02:05:59.220Z,1018.56
2024-02-29T02:06:18.104Z,1018.52
2024-02-29T02:06:27.509Z,1018.55
2024-02-29T02:06:36.920Z,1018.55
2024-02-29T02:06:46.352Z,1018.56
2024-02-29T02:06:55.931Z,1018.60
2024-02-29T02:07:05.394Z,1018.50
2024-02-29T02:07:24.127Z,1018.60
2024-02-29T02:07:33.505Z,1018.54
2024-02-29T02:07:42.920Z,1018.56
2024-02-29T02:07:52.330Z,1018.55
2024-02-29T02:08:01.724Z,1018.55
2024-02-29T02:08:11.121Z,1018.56
2024-02-29T02:08:29.922Z,1018.55
2024-02-29T02:08:39.329Z,1018.50
2024-02-29T02:08:48.744Z,1018.52
2024-02-29T02:08:58.156Z,1018.55
2024-02-29T02:09:07.556Z,1018.55
2024-02-29T02:09:16.940Z,1018.46
2024-02-29T02:09:35.991Z,1018.50
2024-02-29T02:09:45.281Z,1018.50
2024-02-29T02:09:54.673Z,1018.50
2024-02-29T02:10:04.153Z,1018.51
2024-02-29T02:10:13.583Z,1018.48
2024-02-29T02:10:22.973Z,1018.48
2024-02-29T02:10:41.679Z,1018.50
2024-02-29T02:10:51.136Z,1018.43
2024-02-29T02:11:00.516Z,1018.47
2024-02-29T02:11:09.908Z,1018.51
2024-02-29T02:11:19.306Z,1018.46
2024-02-29T02:11:28.885Z,1018.48
2024-02-29T02:11:47.675Z,1018.48
2024-02-29T02:11:57.140Z,1018.54
2024-02-29T02:12:06.541Z,1018.40
2024-02-29T02:12:15.938Z,1018.36
2024-02-29T02:12:25.957Z,1018.43
2024-02-29T02:12:35.481Z,1018.54
2024-02-29T02:12:54.277Z,1018.52
2024-02-29T02:13:03.738Z,1018.51